createdAt,value
2024-02-22T00:00:17.305Z,8.07
2024-02-22T00:02:49.814Z,7.50
2024-02-22T00:05:16.764Z,6.53
2024-02-22T00:07:49.044Z,7.65
2024-02-22T00:10:16.698Z,5.43
2024-02-22T00:12:45.674Z,8.07
2024-02-22T00:15:12.415Z,7.07
2024-02-22T00:17:43.815Z,7.28
2024-02-22T00:20:13.871Z,5.97
2024-02-22T00:22:41.215Z,8.18
2024-02-22T00:25:08.717Z,9.65
2024-02-22T00:27:39.861Z,6.80
2024-02-22T00:32:46.078Z,5.22
2024-02-22T00:35:15.141Z,7.43
2024-02-22T00:37:44.567Z,8.98
2024-02-22T00:40:15.193Z,6.70
2024-02-22T00:42:42.535Z,5.50
2024-02-22T00:45:12.578Z,7.30
2024-02-22T00:47:41.614Z,5.63
2024-02-22T00:50:11.776Z,4.80
2024-02-22T00:52:38.709Z,10.38
2024-02-22T00:55:06.088Z,6.38
2024-02-22T00:57:35.656Z,4.60
2024-02-22T01:00:07.856Z,5.43
2024-02-22T01:02:34.939Z,5.03
2024-02-22T01:05:04.116Z,4.63
2024-02-22T01:07:39.178Z,5.45
2024-02-22T01:10:09.650Z,5.65
2024-02-22T01:12:36.436Z,5.70
2024-02-22T01:15:03.592Z,6.22
2024-02-22T01:17:30.415Z,6.32
2024-02-22T01:19:57.317Z,5.00
2024-02-22T01:22:26.849Z,6.15
2024-02-22T01:24:53.568Z,6.35
2024-02-22T01:27:23.413Z,5.38
2024-02-22T01:30:08.984Z,5.57
2024-02-22T01:32:42.354Z,6.80
2024-02-22T01:35:10.084Z,6.20
2024-02-22T01:37:37.003Z,5.03
2024-02-22T01:40:06.457Z,4.38
2024-02-22T01:42:35.446Z,5.28
2024-02-22T01:45:04.569Z,4.13
2024-02-22T01:47:34.441Z,4.03
2024-02-22T01:50:04.910Z,3.83
2024-02-22T01:52:33.898Z,6.00
2024-02-22T01:55:00.751Z,5.40
2024-02-22T01:57:29.699Z,5.35
2024-02-22T01:59:56.461Z,4.53
2024-02-22T02:02:23.224Z,4.07
2024-02-22T02:04:50.023Z,4.72
2024-02-22T02:07:19.625Z,6.05
2024-02-22T02:09:49.000Z,4.93
2024-02-22T02:12:23.448Z,4.45
2024-02-22T02:14:53.032Z,4.10
2024-02-22T02:17:22.144Z,4.43
2024-02-22T02:19:49.006Z,5.25
2024-02-22T02:22:40.558Z,6.35
2024-02-22T02:25:10.528Z,5.47
2024-02-22T02:27:38.290Z,5.03
2024-02-22T02:30:10.818Z,3.78
2024-02-22T02:32:38.648Z,3.95
2024-02-22T02:35:06.059Z,3.78
2024-02-22T02:37:33.029Z,4.63
2024-02-22T02:40:02.040Z,4.57
2024-02-22T02:42:31.110Z,4.57
2024-02-22T02:45:01.034Z,4.65
2024-02-22T02:47:32.396Z,4.53
2024-02-22T02:50:02.232Z,4.53
2024-02-22T02:52:29.058Z,3.55
2024-02-22T02:55:00.568Z,4.07
2024-02-22T02:57:27.348Z,4.20
2024-02-22T03:00:01.651Z,4.25
2024-02-22T03:02:31.632Z,3.85
2024-02-22T03:04:58.434Z,3.65
2024-02-22T03:07:29.838Z,4.18
2024-02-22T03:09:58.674Z,3.70
2024-02-22T03:12:25.385Z,4.82
2024-02-22T03:14:52.141Z,3.80
2024-02-22T03:17:24.538Z,4.03
2024-02-22T03:19:51.399Z,4.82
2024-02-22T03:22:18.216Z,4.93
2024-02-22T03:24:47.263Z,4.72
2024-02-22T03:27:17.020Z,3.92
2024-02-22T03:29:43.928Z,4.15
2024-02-22T03:32:13.374Z,4.38
2024-02-22T03:34:45.709Z,3.55
2024-02-22T03:37:14.745Z,4.22
2024-02-22T03:39:42.742Z,4.22
2024-02-22T03:42:15.489Z,4.28
2024-02-22T03:44:45.386Z,4.32
2024-02-22T03:47:16.811Z,3.60
2024-02-22T03:49:43.657Z,3.65
2024-02-22T03:52:15.036Z,3.47
2024-02-22T03:54:41.826Z,3.47
2024-02-22T03:57:10.601Z,4.78
2024-02-22T03:59:41.962Z,3.67
2024-02-22T04:02:11.102Z,3.42
2024-02-22T04:04:49.813Z,4.38
2024-02-22T04:07:23.856Z,3.63
2024-02-22T04:09:52.273Z,4.07
2024-02-22T04:12:21.504Z,3.78
2024-02-22T04:14:51.499Z,4.10
2024-02-22T04:17:24.085Z,3.72
2024-02-22T04:19:50.925Z,3.95
2024-02-22T04:22:19.769Z,4.43
2024-02-22T04:24:49.186Z,4.57
2024-02-22T04:27:15.917Z,4.40
2024-02-22T04:29:47.901Z,4.30
2024-02-22T04:32:16.944Z,3.88
2024-02-22T04:34:45.992Z,4.00
2024-02-22T04:37:20.106Z,4.88
2024-02-22T04:39:51.910Z,18.63
2024-02-22T04:42:23.269Z,3.85
2024-02-22T04:44:52.883Z,3.63
2024-02-22T04:47:22.698Z,3.97
2024-02-22T04:49:51.600Z,4.05
2024-02-22T04:52:18.417Z,5.22
2024-02-22T04:54:47.462Z,4.18
2024-02-22T04:57:16.441Z,4.30
2024-02-22T04:59:46.164Z,4.93
2024-02-22T05:02:12.858Z,4.47
2024-02-22T05:04:41.878Z,4.57
2024-02-22T05:07:10.854Z,3.67
2024-02-22T05:09:39.682Z,5.03
2024-02-22T05:12:09.652Z,4.72
2024-02-22T05:14:36.467Z,4.00
2024-02-22T05:17:08.357Z,4.05
2024-02-22T05:19:38.002Z,4.13
2024-02-22T05:22:04.946Z,4.13
2024-02-22T05:24:34.134Z,4.75
2024-02-22T05:27:04.162Z,4.75
2024-02-22T05:29:32.943Z,5.07
2024-02-22T05:31:59.959Z,4.85
2024-02-22T05:34:27.000Z,4.07
2024-02-22T05:36:55.924Z,4.78
2024-02-22T05:39:24.766Z,3.85
2024-02-22T05:41:52.853Z,4.95
2024-02-22T05:44:20.306Z,5.03
2024-02-22T05:46:48.878Z,4.50
2024-02-22T05:49:23.384Z,4.53
2024-02-22T05:51:56.252Z,5.57
2024-02-22T05:54:28.333Z,4.38
2024-02-22T05:56:55.113Z,4.72
2024-02-22T05:59:24.006Z,5.82
2024-02-22T06:01:51.252Z,6.68
2024-02-22T06:04:18.345Z,4.63
2024-02-22T06:06:45.334Z,4.80
2024-02-22T06:09:14.596Z,4.53
2024-02-22T06:11:43.654Z,5.63
2024-02-22T06:14:11.890Z,4.60
2024-02-22T06:16:41.312Z,5.90
2024-02-22T06:19:12.905Z,5.28
2024-02-22T06:21:40.340Z,5.70
2024-02-22T06:24:09.733Z,5.95
2024-02-22T06:26:36.607Z,7.97
2024-02-22T06:29:06.512Z,6.03
2024-02-22T06:31:33.588Z,4.93
2024-02-22T06:34:02.818Z,6.25
2024-02-22T06:36:29.835Z,6.40
2024-02-22T06:38:57.461Z,11.32
2024-02-22T06:41:29.367Z,14.85
2024-02-22T06:43:58.159Z,16.20
2024-02-22T06:46:28.524Z,15.73
2024-02-22T06:49:00.793Z,9.65
2024-02-22T06:51:32.258Z,11.85
2024-02-22T06:53:59.227Z,9.73
2024-02-22T06:56:26.033Z,10.75
2024-02-22T06:58:55.755Z,10.48
2024-02-22T07:01:25.578Z,9.75
2024-02-22T07:06:34.459Z,9.98
2024-02-22T07:09:03.438Z,7.75
2024-02-22T07:11:34.122Z,8.52
2024-02-22T07:14:05.626Z,8.85
2024-02-22T07:16:35.240Z,8.82
2024-02-22T07:19:04.384Z,8.27
2024-02-22T07:21:34.988Z,7.97
2024-02-22T07:24:05.373Z,8.43
2024-02-22T07:26:35.406Z,8.67
2024-02-22T07:29:06.699Z,8.60
2024-02-22T07:31:38.074Z,8.05
2024-02-22T07:34:10.325Z,7.97
2024-02-22T07:36:37.340Z,7.53
2024-02-22T07:39:04.173Z,7.75
2024-02-22T07:41:33.928Z,9.32
2024-02-22T07:44:08.777Z,8.35
2024-02-22T07:46:38.070Z,8.43
2024-02-22T07:49:05.073Z,8.85
2024-02-22T07:51:33.602Z,9.50
2024-02-22T07:54:05.635Z,7.88
2024-02-22T07:56:38.994Z,8.75
2024-02-22T07:59:11.207Z,8.15
2024-02-22T08:01:42.150Z,7.68
2024-02-22T08:04:11.251Z,7.32
2024-02-22T08:06:43.290Z,8.52
2024-02-22T08:09:16.183Z,8.82
2024-02-22T08:11:42.985Z,17.25
2024-02-22T08:14:10.084Z,20.85
2024-02-22T08:16:42.071Z,25.40
2024-02-22T08:19:11.245Z,21.23
2024-02-22T08:21:40.492Z,20.25
2024-02-22T08:24:11.874Z,16.30
2024-02-22T08:26:41.728Z,15.35
2024-02-22T08:29:10.588Z,14.73
2024-02-22T08:31:39.688Z,14.68
2024-02-22T08:34:09.130Z,15.57
2024-02-22T08:36:39.041Z,15.48
2024-02-22T08:39:10.922Z,13.90
2024-02-22T08:41:39.843Z,13.50
2024-02-22T08:44:09.894Z,14.15
2024-02-22T08:46:49.003Z,12.75
2024-02-22T08:49:19.770Z,13.48
2024-02-22T08:51:48.708Z,12.60
2024-02-22T08:54:18.371Z,13.82
2024-02-22T08:59:43.209Z,12.52
2024-02-22T09:02:09.882Z,12.65
2024-02-22T09:04:39.295Z,12.90
2024-02-22T09:07:08.729Z,12.43
2024-02-22T09:09:35.414Z,12.15
2024-02-22T09:12:07.409Z,12.50
2024-02-22T09:14:35.382Z,12.90
2024-02-22T09:17:05.328Z,11.45
2024-02-22T09:19:34.388Z,12.63
2024-02-22T09:22:03.250Z,12.13
2024-02-22T09:24:30.780Z,11.95
2024-02-22T09:26:57.935Z,11.45
2024-02-22T09:29:28.143Z,12.43
2024-02-22T09:31:57.386Z,11.88
2024-02-22T09:34:27.108Z,12.63
2024-02-22T09:36:56.364Z,11.57
2024-02-22T09:39:25.273Z,12.10
2024-02-22T09:41:54.349Z,13.05
2024-02-22T09:44:23.844Z,11.45
2024-02-22T09:46:56.625Z,11.65
2024-02-22T09:49:24.306Z,11.45
2024-02-22T09:51:55.248Z,11.38
2024-02-22T09:54:25.098Z,12.43
2024-02-22T09:56:51.859Z,11.65
2024-02-22T09:59:25.146Z,11.35
2024-02-22T10:01:56.456Z,12.63
2024-02-22T10:06:54.956Z,11.70
2024-02-22T10:09:24.652Z,10.60
2024-02-22T10:11:56.310Z,10.70
2024-02-22T10:14:26.372Z,10.93
2024-02-22T10:16:55.850Z,12.05
2024-02-22T10:19:27.766Z,13.13
2024-02-22T10:21:57.635Z,17.77
2024-02-22T10:24:29.683Z,12.23
2024-02-22T10:27:09.271Z,12.25
2024-02-22T10:29:39.543Z,12.65
2024-02-22T10:32:06.563Z,11.80
2024-02-22T10:34:33.571Z,14.38
2024-02-22T10:37:05.548Z,12.60
2024-02-22T10:39:34.728Z,16.58
2024-02-22T10:42:04.271Z,19.23
2024-02-22T10:44:33.375Z,18.05
2024-02-22T10:47:02.766Z,19.77
2024-02-22T10:49:35.438Z,18.20
2024-02-22T10:52:05.140Z,19.63
2024-02-22T10:54:35.400Z,20.20
2024-02-22T10:57:05.537Z,18.35
2024-02-22T10:59:32.784Z,19.13
2024-02-22T11:02:05.243Z,18.63
2024-02-22T11:04:33.198Z,15.38
2024-02-22T11:07:09.302Z,14.15
2024-02-22T11:09:47.225Z,14.73
2024-02-22T11:12:14.751Z,17.10
2024-02-22T11:14:44.445Z,15.18
2024-02-22T11:17:22.946Z,15.05
2024-02-22T11:19:54.109Z,14.80
2024-02-22T11:22:23.495Z,15.43
2024-02-22T11:24:51.326Z,14.82
2024-02-22T11:27:21.943Z,14.60
2024-02-22T11:29:53.474Z,14.37
2024-02-22T11:32:22.546Z,14.10
2024-02-22T11:34:58.811Z,14.90
2024-02-22T11:37:25.548Z,13.85
2024-02-22T11:39:58.985Z,13.30
2024-02-22T11:42:25.850Z,14.48
2024-02-22T11:44:56.215Z,13.43
2024-02-22T11:49:51.132Z,14.13
2024-02-22T11:52:22.893Z,14.38
2024-02-22T11:54:55.320Z,14.13
2024-02-22T11:57:21.997Z,14.10
2024-02-22T11:59:50.494Z,13.77
2024-02-22T12:02:19.821Z,13.45
2024-02-22T12:04:46.809Z,13.65
2024-02-22T12:07:15.972Z,12.93
2024-02-22T12:09:48.106Z,13.85
2024-02-22T12:12:17.207Z,13.15
2024-02-22T12:15:03.087Z,13.25
2024-02-22T12:17:35.984Z,13.50
2024-02-22T12:20:04.184Z,12.95
2024-02-22T12:22:32.495Z,13.07
2024-02-22T12:25:01.543Z,12.88
2024-02-22T12:27:30.962Z,15.48
2024-02-22T12:29:59.217Z,15.20
2024-02-22T12:32:26.114Z,13.23
2024-02-22T12:34:55.826Z,14.88
2024-02-22T12:37:24.705Z,13.85
2024-02-22T12:39:51.416Z,14.23
2024-02-22T12:42:21.229Z,13.90
2024-02-22T12:44:50.641Z,13.20
2024-02-22T12:47:20.134Z,13.23
2024-02-22T12:49:47.300Z,13.40
2024-02-22T12:52:16.437Z,12.85
2024-02-22T12:54:43.212Z,14.75
2024-02-22T12:57:14.089Z,13.48
2024-02-22T12:59:42.112Z,13.07
2024-02-22T13:02:09.137Z,13.05
2024-02-22T13:04:36.081Z,12.48
2024-02-22T13:07:10.962Z,14.20
2024-02-22T13:09:42.321Z,12.90
2024-02-22T13:12:09.197Z,13.70
2024-02-22T13:14:38.722Z,13.27
2024-02-22T13:17:07.881Z,14.30
2024-02-22T13:19:36.715Z,14.20
2024-02-22T13:22:03.659Z,13.57
2024-02-22T13:24:33.708Z,13.45
2024-02-22T13:27:02.603Z,13.32
2024-02-22T13:29:31.458Z,13.23
2024-02-22T13:32:00.342Z,13.48
2024-02-22T13:34:29.316Z,12.85
2024-02-22T13:37:00.675Z,13.27
2024-02-22T13:39:30.329Z,12.80
2024-02-22T13:41:59.375Z,13.38
2024-02-22T13:44:31.002Z,14.43
2024-02-22T13:46:59.500Z,12.70
2024-02-22T13:49:28.817Z,12.65
2024-02-22T13:52:04.366Z,12.43
2024-02-22T13:54:39.676Z,12.48
2024-02-22T13:57:08.844Z,12.35
2024-02-22T13:59:35.718Z,12.25
2024-02-22T14:02:04.817Z,12.18
2024-02-22T14:04:34.704Z,12.60
2024-02-22T14:07:07.050Z,12.07
2024-02-22T14:09:36.116Z,11.40
2024-02-22T14:12:08.749Z,12.18
2024-02-22T14:14:38.412Z,12.05
2024-02-22T14:17:05.185Z,11.60
2024-02-22T14:19:31.951Z,11.68
2024-02-22T14:22:03.327Z,12.10
2024-02-22T14:24:30.103Z,11.38
2024-02-22T14:27:12.897Z,11.63
2024-02-22T14:29:45.690Z,11.23
2024-02-22T14:32:16.521Z,11.98
2024-02-22T14:34:49.957Z,10.57
2024-02-22T14:37:16.875Z,11.15
2024-02-22T14:39:45.884Z,10.85
2024-02-22T14:42:18.785Z,10.48
2024-02-22T14:44:50.901Z,11.05
2024-02-22T14:47:20.318Z,10.07
2024-02-22T14:49:50.256Z,10.50
2024-02-22T14:52:19.155Z,9.90
2024-02-22T14:54:46.142Z,10.25
2024-02-22T14:57:18.520Z,11.75
2024-02-22T14:59:47.395Z,12.18
2024-02-22T15:02:14.239Z,13.45
2024-02-22T15:04:46.422Z,12.57
2024-02-22T15:07:17.908Z,13.88
2024-02-22T15:09:44.706Z,11.65
2024-02-22T15:12:11.634Z,10.98
2024-02-22T15:14:39.802Z,11.80
2024-02-22T15:17:11.318Z,12.32
2024-02-22T15:19:40.381Z,12.27
2024-02-22T15:22:07.864Z,12.20
2024-02-22T15:24:36.761Z,12.15
2024-02-22T15:27:04.702Z,11.88
2024-02-22T15:29:33.694Z,12.15
2024-02-22T15:32:01.303Z,12.00
2024-02-22T15:34:33.441Z,11.45
2024-02-22T15:37:02.877Z,14.95
2024-02-22T15:39:32.336Z,13.38
2024-02-22T15:42:03.733Z,13.48
2024-02-22T15:44:30.517Z,12.77
2024-02-22T15:46:57.742Z,12.05
2024-02-22T15:49:27.168Z,13.23
2024-02-22T15:51:56.162Z,13.95
2024-02-22T15:54:23.025Z,12.88
2024-02-22T15:56:51.875Z,12.70
2024-02-22T15:59:18.727Z,12.77
2024-02-22T16:01:46.638Z,12.07
2024-02-22T16:04:13.591Z,12.48
2024-02-22T16:06:42.451Z,13.40
2024-02-22T16:09:13.932Z,14.63
2024-02-22T16:11:40.752Z,14.07
2024-02-22T16:14:07.677Z,14.73
2024-02-22T16:16:34.520Z,12.98
2024-02-22T16:19:01.497Z,12.43
2024-02-22T16:21:28.339Z,13.77
2024-02-22T16:23:56.071Z,14.07
2024-02-22T16:26:23.104Z,14.32
2024-02-22T16:28:52.091Z,15.65
2024-02-22T16:31:18.997Z,14.52
2024-02-22T16:33:50.444Z,13.55
2024-02-22T16:36:17.488Z,15.73
2024-02-22T16:38:54.578Z,13.82
2024-02-22T16:41:29.946Z,14.55
2024-02-22T16:44:05.188Z,13.15
2024-02-22T16:46:33.237Z,15.70
2024-02-22T16:49:00.617Z,17.00
2024-02-22T16:51:32.254Z,16.67
2024-02-22T16:54:03.661Z,18.70
2024-02-22T16:56:35.086Z,16.00
2024-02-22T16:59:05.209Z,21.13
2024-02-22T17:01:34.457Z,16.52
2024-02-22T17:04:04.316Z,16.52
2024-02-22T17:06:32.819Z,17.75
2024-02-22T17:09:01.789Z,24.30
2024-02-22T17:11:32.209Z,18.63
2024-02-22T17:14:01.879Z,18.40
2024-02-22T17:16:28.688Z,21.85
2024-02-22T17:18:57.865Z,29.20
2024-02-22T17:21:26.069Z,34.15
2024-02-22T17:23:53.481Z,43.47
2024-02-22T17:26:23.081Z,45.17
2024-02-22T17:28:54.551Z,50.75
2024-02-22T17:31:28.507Z,52.47
2024-02-22T17:33:55.445Z,50.58
2024-02-22T17:36:26.990Z,53.03
2024-02-22T17:38:55.884Z,50.63
2024-02-22T17:41:28.984Z,53.00
2024-02-22T17:43:58.046Z,47.72
2024-02-22T17:46:25.449Z,47.35
2024-02-22T17:48:55.185Z,43.17
2024-02-22T17:51:33.979Z,48.85
2024-02-22T17:54:09.248Z,46.65
2024-02-22T17:56:36.074Z,40.30
2024-02-22T17:59:05.128Z,40.50
2024-02-22T18:01:32.024Z,43.70
2024-02-22T18:04:01.389Z,39.58
2024-02-22T18:06:32.747Z,42.95
2024-02-22T18:08:59.461Z,40.33
2024-02-22T18:11:26.225Z,41.72
2024-02-22T18:14:05.282Z,36.65
2024-02-22T18:16:32.243Z,37.22
2024-02-22T18:19:01.221Z,41.03
2024-02-22T18:21:30.177Z,37.42
2024-02-22T18:24:01.525Z,41.28
2024-02-22T18:26:30.733Z,41.33
2024-02-22T18:28:57.552Z,35.63
2024-02-22T18:31:26.511Z,35.47
2024-02-22T18:33:55.543Z,39.78
2024-02-22T18:36:22.510Z,35.03
2024-02-22T18:38:51.536Z,32.03
2024-02-22T18:41:24.581Z,33.70
2024-02-22T18:44:01.492Z,36.20
2024-02-22T18:46:31.007Z,33.03
2024-02-22T18:49:00.249Z,28.67
2024-02-22T18:51:29.051Z,34.25
2024-02-22T18:53:57.953Z,30.17
2024-02-22T18:56:26.841Z,34.67
2024-02-22T18:58:59.724Z,30.10
2024-02-22T19:01:31.440Z,32.47
2024-02-22T19:03:58.251Z,31.73
2024-02-22T19:06:27.426Z,33.50
2024-02-22T19:08:54.229Z,30.73
2024-02-22T19:11:26.064Z,28.60
2024-02-22T19:13:53.473Z,25.80
2024-02-22T19:16:25.787Z,31.00
2024-02-22T19:19:00.610Z,29.02
2024-02-22T19:21:28.135Z,27.77
2024-02-22T19:23:58.191Z,27.40
2024-02-22T19:26:27.140Z,30.38
2024-02-22T19:28:58.567Z,25.52
2024-02-22T19:31:25.621Z,26.85
2024-02-22T19:33:56.134Z,28.63
2024-02-22T19:36:34.909Z,27.23
2024-02-22T19:39:13.061Z,24.90
2024-02-22T19:41:43.138Z,25.98
2024-02-22T19:44:13.249Z,25.50
2024-02-22T19:46:42.138Z,23.88
2024-02-22T19:49:11.213Z,24.52
2024-02-22T19:51:43.851Z,26.85
2024-02-22T19:54:15.524Z,25.58
2024-02-22T19:56:45.098Z,27.38
2024-02-22T19:59:17.216Z,26.75
2024-02-22T20:01:44.958Z,27.17
2024-02-22T20:04:11.845Z,23.20
2024-02-22T20:06:44.031Z,25.23
2024-02-22T20:09:11.174Z,24.83
2024-02-22T20:11:41.896Z,25.92
2024-02-22T20:14:10.850Z,25.75
2024-02-22T20:16:37.681Z,25.55
2024-02-22T20:19:07.671Z,21.25
2024-02-22T20:21:39.213Z,24.33
2024-02-22T20:24:09.224Z,24.77
2024-02-22T20:26:39.612Z,24.00
2024-02-22T20:29:09.186Z,22.00
2024-02-22T20:31:35.989Z,23.33
2024-02-22T20:34:04.700Z,22.60
2024-02-22T20:36:32.961Z,20.83
2024-02-22T20:38:59.821Z,20.02
2024-02-22T20:41:28.744Z,19.73
2024-02-22T20:43:57.819Z,21.40
2024-02-22T20:46:28.003Z,19.60
2024-02-22T20:48:56.421Z,24.42
2024-02-22T20:51:27.127Z,21.65
2024-02-22T20:53:56.149Z,19.98
2024-02-22T20:56:27.730Z,21.00
2024-02-22T20:58:54.734Z,18.95
2024-02-22T21:01:23.786Z,20.40
2024-02-22T21:03:50.551Z,18.98
2024-02-22T21:06:24.796Z,19.83
2024-02-22T21:08:54.637Z,21.60
2024-02-22T21:11:26.197Z,22.25
2024-02-22T21:13:55.559Z,21.85
2024-02-22T21:16:33.738Z,20.58
2024-02-22T21:19:00.685Z,18.55
2024-02-22T21:21:31.185Z,20.70
2024-02-22T21:23:57.956Z,18.70
2024-02-22T21:26:26.842Z,20.35
2024-02-22T21:28:58.325Z,20.65
2024-02-22T21:31:25.843Z,18.65
2024-02-22T21:33:57.376Z,18.80
2024-02-22T21:36:24.205Z,17.83
2024-02-22T21:38:55.452Z,19.58
2024-02-22T21:43:54.009Z,26.30
2024-02-22T21:46:23.114Z,20.75
2024-02-22T21:48:50.841Z,18.95
2024-02-22T21:51:17.649Z,18.80
2024-02-22T21:53:52.596Z,26.08
2024-02-22T21:56:26.880Z,19.52
2024-02-22T21:58:55.814Z,20.55
2024-02-22T22:01:24.671Z,25.55
2024-02-22T22:03:53.888Z,23.48
2024-02-22T22:06:24.844Z,20.27
2024-02-22T22:08:51.759Z,26.88
2024-02-22T22:11:18.568Z,21.10
2024-02-22T22:13:47.458Z,22.42
2024-02-22T22:16:19.147Z,26.27
2024-02-22T22:18:48.773Z,18.40
2024-02-22T22:21:25.290Z,23.15
2024-02-22T22:24:03.458Z,27.02
2024-02-22T22:26:33.800Z,18.60
2024-02-22T22:29:07.685Z,22.27
2024-02-22T22:31:40.321Z,18.27
2024-02-22T22:34:10.346Z,19.48
2024-02-22T22:36:37.265Z,19.50
2024-02-22T22:39:04.800Z,22.30
2024-02-22T22:41:37.934Z,20.25
2024-02-22T22:44:05.647Z,20.88
2024-02-22T22:46:34.780Z,16.17
2024-02-22T22:49:04.740Z,19.08
2024-02-22T22:51:33.873Z,18.52
2024-02-22T22:54:03.787Z,16.10
2024-02-22T22:56:30.612Z,18.85
2024-02-22T22:59:01.088Z,20.90
2024-02-22T23:01:27.811Z,21.37
2024-02-22T23:03:55.869Z,20.73
2024-02-22T23:06:28.046Z,17.80
2024-02-22T23:08:57.463Z,14.13
2024-02-22T23:11:30.669Z,16.75
2024-02-22T23:13:58.548Z,16.25
2024-02-22T23:16:31.034Z,15.10
2024-02-22T23:19:00.088Z,18.25
2024-02-22T23:21:37.308Z,16.63
2024-02-22T23:24:05.140Z,16.17
2024-02-22T23:26:34.286Z,13.38
2024-02-22T23:29:05.735Z,13.65
2024-02-22T23:31:35.527Z,13.55
2024-02-22T23:34:04.461Z,15.07
2024-02-22T23:36:35.951Z,16.30
2024-02-22T23:39:05.629Z,15.32
2024-02-22T23:41:32.659Z,15.05
2024-02-22T23:44:04.789Z,13.35
2024-02-22T23:46:31.784Z,15.25
2024-02-22T23:49:04.833Z,13.40
2024-02-22T23:51:37.275Z,16.65
2024-02-22T23:54:09.014Z,13.65
2024-02-22T23:56:38.220Z,15.43
2024-02-22T23:59:07.553Z,15.50
